Little Cedar, Iowa
Current Conditions -  °F | °C
As of 1:56 PM on Friday 24 Oct 2014 (Local Time) from KAUM Reporting Station
Haze Haze  
Wind Chill: 55°   Ceiling: 200
Heat Index: 55°   Visibility: 2.5mi
Dew Point: 54°   Wind: 12mph
Humidity: 94%   Direction: 180°S
Pressure: 29.87"   Gusts: NA
Location:  43.38°N, 92.73°W
Report Text: KAUM 241856Z AUTO 18010KT 2 1/2SM BR OVC002 13/12 A2987 RMK AO2
Loading
Personal Weather Stations






























Interactive Weather Map
Tropical Storm Tracking
New forecast layout! Learn more

10-Day Weather Forecast

Advertisements
Track Severe Weather on mobile